sensor_id;sensor_type;location;lat;lon;timestamp;pressure;altitude;pressure_sealevel;temperature;humidity
18323;BME280;9287;49.456;11.064;2024-03-02T00:00:40;97093.25;;;7.02;100.00
18323;BME280;9287;49.456;11.064;2024-03-02T00:03:08;97089.22;;;7.11;100.00
18323;BME280;9287;49.456;11.064;2024-03-02T00:05:36;97085.72;;;7.11;100.00
18323;BME280;9287;49.456;11.064;2024-03-02T00:08:06;97086.88;;;7.10;100.00
18323;BME280;9287;49.456;11.064;2024-03-02T00:10:37;97081.72;;;7.05;100.00
18323;BME280;9287;49.456;11.064;2024-03-02T00:13:06;97081.00;;;7.08;100.00
18323;BME280;9287;49.456;11.064;2024-03-02T00:15:46;97089.75;;;7.01;100.00
18323;BME280;9287;49.456;11.064;2024-03-02T00:18:19;97086.00;;;7.06;100.00
18323;BME280;9287;49.456;11.064;2024-03-02T00:20:47;97087.66;;;6.94;100.00
18323;BME280;9287;49.456;11.064;2024-03-02T00:23:16;97093.25;;;7.02;100.00
18323;BME280;9287;49.456;11.064;2024-03-02T00:25:48;97086.44;;;7.08;100.00
18323;BME280;9287;49.456;11.064;2024-03-02T00:28:17;97086.16;;;7.13;100.00
18323;BME280;9287;49.456;11.064;2024-03-02T00:30:57;97079.59;;;7.14;100.00
18323;BME280;9287;49.456;11.064;2024-03-02T00:33:27;97080.47;;;7.18;100.00
18323;BME280;9287;49.456;11.064;2024-03-02T00:35:56;97081.88;;;7.12;100.00
18323;BME280;9287;49.456;11.064;2024-03-02T00:38:26;97083.28;;;7.06;100.00
18323;BME280;9287;49.456;11.064;2024-03-02T00:40:54;97085.66;;;7.07;100.00
18323;BME280;9287;49.456;11.064;2024-03-02T00:46:18;97081.53;;;6.97;100.00
18323;BME280;9287;49.456;11.064;2024-03-02T00:48:54;97083.44;;;7.13;100.00
18323;BME280;9287;49.456;11.064;2024-03-02T00:51:24;97084.59;;;7.12;100.00
18323;BME280;9287;49.456;11.064;2024-03-02T00:53:55;97085.91;;;7.18;100.00
18323;BME280;9287;49.456;11.064;2024-03-02T00:56:24;97091.16;;;7.11;100.00
18323;BME280;9287;49.456;11.064;2024-03-02T00:58:52;97091.59;;;6.97;100.00
18323;BME280;9287;49.456;11.064;2024-03-02T01:01:20;97091.69;;;7.01;100.00
18323;BME280;9287;49.456;11.064;2024-03-02T01:03:49;97096.22;;;6.96;100.00
18323;BME280;9287;49.456;11.064;2024-03-02T01:06:17;97095.53;;;6.99;100.00
18323;BME280;9287;49.456;11.064;2024-03-02T01:08:45;97095.19;;;7.01;100.00
18323;BME280;9287;49.456;11.064;2024-03-02T01:11:19;97101.66;;;6.96;100.00
18323;BME280;9287;49.456;11.064;2024-03-02T01:13:49;97099.38;;;6.98;100.00
18323;BME280;9287;49.456;11.064;2024-03-02T01:16:18;97096.66;;;6.98;100.00
18323;BME280;9287;49.456;11.064;2024-03-02T01:18:46;97098.00;;;7.05;100.00
18323;BME280;9287;49.456;11.064;2024-03-02T01:21:14;97096.41;;;7.04;100.00
18323;BME280;9287;49.456;11.064;2024-03-02T01:23:42;97093.16;;;6.98;100.00
18323;BME280;9287;49.456;11.064;2024-03-02T01:26:10;97093.53;;;6.96;100.00
18323;BME280;9287;49.456;11.064;2024-03-02T01:28:40;97099.22;;;6.91;100.00
18323;BME280;9287;49.456;11.064;2024-03-02T01:31:07;97091.50;;;6.93;100.00
18323;BME280;9287;49.456;11.064;2024-03-02T01:33:35;97093.00;;;6.91;100.00
18323;BME280;9287;49.456;11.064;2024-03-02T01:36:04;97096.94;;;6.93;100.00
18323;BME280;9287;49.456;11.064;2024-03-02T01:38:32;97086.84;;;6.94;100.00
18323;BME280;9287;49.456;11.064;2024-03-02T01:41:00;97097.66;;;6.90;100.00
18323;BME280;9287;49.456;11.064;2024-03-02T01:43:29;97091.50;;;6.93;100.00
18323;BME280;9287;49.456;11.064;2024-03-02T01:45:58;97093.25;;;7.02;100.00
18323;BME280;9287;49.456;11.064;2024-03-02T01:48:26;97088.53;;;6.98;100.00
18323;BME280;9287;49.456;11.064;2024-03-02T01:50:54;97092.72;;;6.96;100.00
18323;BME280;9287;49.456;11.064;2024-03-02T01:53:22;97105.25;;;6.85;100.00
18323;BME280;9287;49.456;11.064;2024-03-02T01:55:50;97095.97;;;6.86;100.00
18323;BME280;9287;49.456;11.064;2024-03-02T01:58:17;97095.19;;;6.85;100.00
18323;BME280;9287;49.456;11.064;2024-03-02T02:00:52;97093.16;;;6.82;100.00
18323;BME280;9287;49.456;11.064;2024-03-02T02:03:22;97095.88;;;6.82;100.00
18323;BME280;9287;49.456;11.064;2024-03-02T02:05:50;97102.09;;;6.83;100.00
18323;BME280;9287;49.456;11.064;2024-03-02T02:08:17;97102.19;;;6.86;100.00
18323;BME280;9287;49.456;11.064;2024-03-02T02:10:45;97098.16;;;6.80;100.00
18323;BME280;9287;49.456;11.064;2024-03-02T02:13:13;97092.72;;;6.80;100.00
18323;BME280;9287;49.456;11.064;2024-03-02T02:15:41;97089.56;;;6.78;100.00
18323;BME280;9287;49.456;11.064;2024-03-02T02:18:08;97097.09;;;6.69;100.00
18323;BME280;9287;49.456;11.064;2024-03-02T02:20:38;97090.28;;;6.75;100.00
18323;BME280;9287;49.456;11.064;2024-03-02T02:23:09;97090.28;;;6.75;100.00
18323;BME280;9287;49.456;11.064;2024-03-02T02:25:37;97093.00;;;6.75;100.00
18323;BME280;9287;49.456;11.064;2024-03-02T02:28:05;97090.00;;;6.80;100.00
18323;BME280;9287;49.456;11.064;2024-03-02T02:30:33;97093.41;;;6.77;100.00
18323;BME280;9287;49.456;11.064;2024-03-02T02:33:01;97098.00;;;6.73;100.00
18323;BME280;9287;49.456;11.064;2024-03-02T02:35:29;97095.44;;;6.80;100.00
18323;BME280;9287;49.456;11.064;2024-03-02T02:37:57;97101.97;;;6.63;100.00
18323;BME280;9287;49.456;11.064;2024-03-02T02:40:27;97107.31;;;6.76;100.00
18323;BME280;9287;49.456;11.064;2024-03-02T02:42:56;97101.56;;;6.77;100.00
18323;BME280;9287;49.456;11.064;2024-03-02T02:45:23;97103.41;;;6.73;100.00
18323;BME280;9287;49.456;11.064;2024-03-02T02:47:51;97103.41;;;6.73;100.00
18323;BME280;9287;49.456;11.064;2024-03-02T02:50:19;97102.69;;;6.76;100.00
18323;BME280;9287;49.456;11.064;2024-03-02T02:52:47;97103.56;;;6.80;100.00
18323;BME280;9287;49.456;11.064;2024-03-02T02:55:15;97101.84;;;6.72;100.00
18323;BME280;9287;49.456;11.064;2024-03-02T02:57:44;97102.88;;;6.83;100.00
18323;BME280;9287;49.456;11.064;2024-03-02T03:00:14;97090.34;;;6.79;100.00
18323;BME280;9287;49.456;11.064;2024-03-02T03:02:46;97095.72;;;6.75;100.00
18323;BME280;9287;49.456;11.064;2024-03-02T03:05:16;97097.47;;;6.83;100.00
18323;BME280;9287;49.456;11.064;2024-03-02T03:07:44;97096.13;;;6.77;100.00
18323;BME280;9287;49.456;11.064;2024-03-02T03:10:12;97091.84;;;6.76;100.00
18323;BME280;9287;49.456;11.064;2024-03-02T03:12:41;97094.41;;;6.85;100.00
18323;BME280;9287;49.456;11.064;2024-03-02T03:15:12;97088.88;;;6.81;100.00
18323;BME280;9287;49.456;11.064;2024-03-02T03:17:40;97101.75;;;7.00;100.00
18323;BME280;9287;49.456;11.064;2024-03-02T03:20:08;97099.38;;;6.98;100.00
18323;BME280;9287;49.456;11.064;2024-03-02T03:22:37;97094.31;;;6.81;100.00
18323;BME280;9287;49.456;11.064;2024-03-02T03:25:05;97095.88;;;6.82;100.00
18323;BME280;9287;49.456;11.064;2024-03-02T03:27:35;97102.00;;;6.79;100.00
18323;BME280;9287;49.456;11.064;2024-03-02T03:30:03;97098.94;;;6.81;100.00
18323;BME280;9287;49.456;11.064;2024-03-02T03:32:34;97099.03;;;6.84;100.00
18323;BME280;9287;49.456;11.064;2024-03-02T03:35:03;97096.94;;;6.93;100.00
18323;BME280;9287;49.456;11.064;2024-03-02T03:37:30;97094.31;;;6.81;100.00
18323;BME280;9287;49.456;11.064;2024-03-02T03:40:01;97094.31;;;6.81;100.00
18323;BME280;9287;49.456;11.064;2024-03-02T03:42:29;97095.00;;;6.78;100.00
18323;BME280;9287;49.456;11.064;2024-03-02T03:44:57;97094.13;;;6.74;100.00
18323;BME280;9287;49.456;11.064;2024-03-02T03:47:25;97094.81;;;6.71;100.00
18323;BME280;9287;49.456;11.064;2024-03-02T03:49:54;97100.34;;;6.75;100.00
18323;BME280;9287;49.456;11.064;2024-03-02T03:52:22;97095.97;;;6.70;100.00
18323;BME280;9287;49.456;11.064;2024-03-02T03:54:50;97103.22;;;6.66;100.00
18323;BME280;9287;49.456;11.064;2024-03-02T03:57:17;97109.53;;;6.70;100.00
18323;BME280;9287;49.456;11.064;2024-03-02T03:59:45;97102.88;;;6.83;100.00
18323;BME280;9287;49.456;11.064;2024-03-02T04:02:13;97101.16;;;6.75;100.00
18323;BME280;9287;49.456;11.064;2024-03-02T04:04:41;97096.75;;;6.71;100.00
18323;BME280;9287;49.456;11.064;2024-03-02T04:07:11;97091.94;;;6.80;100.00
18323;BME280;9287;49.456;11.064;2024-03-02T04:09:39;97096.22;;;6.65;100.00
18323;BME280;9287;49.456;11.064;2024-03-02T04:12:07;97096.22;;;6.65;100.00
18323;BME280;9287;49.456;11.064;2024-03-02T04:14:35;97097.78;;;6.66;100.00
18323;BME280;9287;49.456;11.064;2024-03-02T04:17:04;97095.53;;;6.68;100.00
18323;BME280;9287;49.456;11.064;2024-03-02T04:19:32;97103.91;;;6.63;100.00
18323;BME280;9287;49.456;11.064;2024-03-02T04:22:00;97107.94;;;6.69;100.00
18323;BME280;9287;49.456;11.064;2024-03-02T04:24:42;97095.72;;;6.75;100.00
18323;BME280;9287;49.456;11.064;2024-03-02T04:27:10;97106.59;;;6.47;100.00
18323;BME280;9287;49.456;11.064;2024-03-02T04:29:37;97105.09;;;6.50;100.00
18323;BME280;9287;49.456;11.064;2024-03-02T04:32:06;97113.00;;;6.55;100.00
18323;BME280;9287;49.456;11.064;2024-03-02T04:34:35;97107.81;;;6.50;100.00
18323;BME280;9287;49.456;11.064;2024-03-02T04:37:03;97115.06;;;6.46;100.00
18323;BME280;9287;49.456;11.064;2024-03-02T04:39:31;97118.91;;;6.45;100.00
18323;BME280;9287;49.456;11.064;2024-03-02T04:42:00;97108.84;;;6.45;100.00
18323;BME280;9287;49.456;11.064;2024-03-02T04:44:29;97115.06;;;6.46;100.00
18323;BME280;9287;49.456;11.064;2024-03-02T04:46:57;97121.19;;;6.43;100.00
18323;BME280;9287;49.456;11.064;2024-03-02T04:49:25;97123.44;;;6.41;100.00
18323;BME280;9287;49.456;11.064;2024-03-02T04:51:53;97117.38;;;6.32;100.00
18323;BME280;9287;49.456;11.064;2024-03-02T04:54:20;97121.00;;;6.36;100.00
18323;BME280;9287;49.456;11.064;2024-03-02T04:56:48;97124.72;;;6.31;100.00
18323;BME280;9287;49.456;11.064;2024-03-02T04:59:19;97127.09;;;6.33;100.00
18323;BME280;9287;49.456;11.064;2024-03-02T05:01:47;97122.69;;;6.40;100.00
18323;BME280;9287;49.456;11.064;2024-03-02T05:04:15;97128.34;;;6.35;100.00
18323;BME280;9287;49.456;11.064;2024-03-02T05:06:42;97121.47;;;6.25;100.00
18323;BME280;9287;49.456;11.064;2024-03-02T05:09:10;97133.22;;;6.29;100.00
18323;BME280;9287;49.456;11.064;2024-03-02T05:11:38;97123.72;;;6.23;100.00
18323;BME280;9287;49.456;11.064;2024-03-02T05:14:39;97131.19;;;6.26;100.00
18323;BME280;9287;49.456;11.064;2024-03-02T05:17:07;97133.72;;;6.19;100.00
18323;BME280;9287;49.456;11.064;2024-03-02T05:19:35;97131.19;;;6.26;100.00
18323;BME280;9287;49.456;11.064;2024-03-02T05:22:03;97137.75;;;6.25;100.00
18323;BME280;9287;49.456;11.064;2024-03-02T05:24:32;97140.09;;;6.27;100.00
18323;BME280;9287;49.456;11.064;2024-03-02T05:27:00;97132.25;;;6.22;100.00
18323;BME280;9287;49.456;11.064;2024-03-02T05:29:28;97135.75;;;6.22;100.00
18323;BME280;9287;49.456;11.064;2024-03-02T05:31:57;97135.03;;;6.25;100.00
18323;BME280;9287;49.456;11.064;2024-03-02T05:34:25;97133.72;;;6.19;100.00
18323;BME280;9287;49.456;11.064;2024-03-02T05:36:53;97137.78;;;6.13;100.00
18323;BME280;9287;49.456;11.064;2024-03-02T05:39:21;97135.06;;;6.13;100.00
18323;BME280;9287;49.456;11.064;2024-03-02T05:41:48;97135.97;;;6.17;100.00
18323;BME280;9287;49.456;11.064;2024-03-02T05:44:16;97139.69;;;6.13;100.00
18323;BME280;9287;49.456;11.064;2024-03-02T05:46:44;97142.75;;;6.11;100.00
18323;BME280;9287;49.456;11.064;2024-03-02T05:49:14;97140.09;;;5.99;100.00
18323;BME280;9287;49.456;11.064;2024-03-02T05:51:41;97148.06;;;6.08;100.00
18323;BME280;9287;49.456;11.064;2024-03-02T05:54:09;97153.81;;;6.18;100.00
18323;BME280;9287;49.456;11.064;2024-03-02T05:56:37;97146.84;;;6.05;100.00
18323;BME280;9287;49.456;11.064;2024-03-02T05:59:05;97135.22;;;6.05;100.00
18323;BME280;9287;49.456;11.064;2024-03-02T06:01:39;97146.63;;;5.98;100.00
18323;BME280;9287;49.456;11.064;2024-03-02T06:04:07;97144.59;;;5.95;100.00
18323;BME280;9287;49.456;11.064;2024-03-02T06:06:36;97143.25;;;6.01;100.00
18323;BME280;9287;49.456;11.064;2024-03-02T06:09:05;97143.94;;;5.98;100.00
18323;BME280;9287;49.456;11.064;2024-03-02T06:11:34;97135.56;;;6.03;100.00
18323;BME280;9287;49.456;11.064;2024-03-02T06:14:03;97139.41;;;6.02;100.00
18323;BME280;9287;49.456;11.064;2024-03-02T06:16:31;97144.16;;;6.05;100.00
18323;BME280;9287;49.456;11.064;2024-03-02T06:18:59;97141.00;;;6.03;100.00
18323;BME280;9287;49.456;11.064;2024-03-02T06:21:27;97138.13;;;6.12;100.00
18323;BME280;9287;49.456;11.064;2024-03-02T06:23:57;97143.66;;;6.15;100.00
18323;BME280;9287;49.456;11.064;2024-03-02T06:26:25;97142.72;;;6.23;100.00
18323;BME280;9287;49.456;11.064;2024-03-02T06:28:53;97145.03;;;6.09;100.00
18323;BME280;9287;49.456;11.064;2024-03-02T06:31:21;97144.94;;;6.06;100.00
18323;BME280;9287;49.456;11.064;2024-03-02T06:33:49;97148.41;;;6.18;100.00
18323;BME280;9287;49.456;11.064;2024-03-02T06:36:18;97157.44;;;6.10;100.00
18323;BME280;9287;49.456;11.064;2024-03-02T06:38:46;97149.75;;;6.12;100.00
18323;BME280;9287;49.456;11.064;2024-03-02T06:41:16;97149.75;;;6.12;100.00
18323;BME280;9287;49.456;11.064;2024-03-02T06:43:44;97142.97;;;6.18;100.00
18323;BME280;9287;49.456;11.064;2024-03-02T06:46:11;97147.00;;;6.24;100.00
18323;BME280;9287;49.456;11.064;2024-03-02T06:48:41;97152.22;;;6.17;100.00
18323;BME280;9287;49.456;11.064;2024-03-02T06:51:09;97143.94;;;6.26;100.00
18323;BME280;9287;49.456;11.064;2024-03-02T06:53:37;97142.28;;;6.21;100.00
18323;BME280;9287;49.456;11.064;2024-03-02T06:56:06;97138.44;;;6.22;100.00
18323;BME280;9287;49.456;11.064;2024-03-02T06:58:36;97137.53;;;6.46;100.00
18323;BME280;9287;49.456;11.064;2024-03-02T07:01:03;97137.66;;;6.50;100.00
18323;BME280;9287;49.456;11.064;2024-03-02T07:03:31;97128.84;;;6.53;100.00
18323;BME280;9287;49.456;11.064;2024-03-02T07:06:00;97142.06;;;6.70;100.00
18323;BME280;9287;49.456;11.064;2024-03-02T07:08:28;97142.97;;;6.74;100.00
18323;BME280;9287;49.456;11.064;2024-03-02T07:10:55;97138.72;;;6.61;100.00
18323;BME280;9287;49.456;11.064;2024-03-02T07:13:23;97147.88;;;6.84;100.00
18323;BME280;9287;49.456;11.064;2024-03-02T07:15:52;97137.38;;;6.98;100.00
18323;BME280;9287;49.456;11.064;2024-03-02T07:18:49;97144.03;;;6.85;100.00
18323;BME280;9287;49.456;11.064;2024-03-02T07:21:19;97152.72;;;7.07;100.00
18323;BME280;9287;49.456;11.064;2024-03-02T07:23:49;97155.94;;;7.28;100.00
18323;BME280;9287;49.456;11.064;2024-03-02T07:26:17;97151.75;;;7.46;100.00
18323;BME280;9287;49.456;11.064;2024-03-02T07:28:48;97161.31;;;7.40;100.00
18323;BME280;9287;49.456;11.064;2024-03-02T07:31:18;97151.72;;;7.78;100.00
18323;BME280;9287;49.456;11.064;2024-03-02T07:33:46;97156.16;;;7.86;100.00
18323;BME280;9287;49.456;11.064;2024-03-02T07:36:14;97159.44;;;8.11;100.00
18323;BME280;9287;49.456;11.064;2024-03-02T07:38:43;97162.50;;;8.09;100.00
18323;BME280;9287;49.456;11.064;2024-03-02T07:41:11;97162.63;;;7.97;100.00
18323;BME280;9287;49.456;11.064;2024-03-02T07:43:39;97162.81;;;8.23;100.00
18323;BME280;9287;49.456;11.064;2024-03-02T07:46:07;97167.28;;;7.96;100.00
18323;BME280;9287;49.456;11.064;2024-03-02T07:48:36;97168.13;;;8.00;100.00
18323;BME280;9287;49.456;11.064;2024-03-02T07:51:05;97166.44;;;7.77;100.00
18323;BME280;9287;49.456;11.064;2024-03-02T07:53:33;97165.31;;;7.97;100.00
18323;BME280;9287;49.456;11.064;2024-03-02T07:56:01;97159.66;;;7.86;100.00
18323;BME280;9287;49.456;11.064;2024-03-02T07:58:29;97162.34;;;8.02;100.00
18323;BME280;9287;49.456;11.064;2024-03-02T08:00:58;97158.13;;;7.69;100.00
18323;BME280;9287;49.456;11.064;2024-03-02T08:03:28;97168.47;;;7.99;100.00
18323;BME280;9287;49.456;11.064;2024-03-02T08:05:57;97168.66;;;8.06;100.00
18323;BME280;9287;49.456;11.064;2024-03-02T08:08:25;97164.25;;;7.66;100.00
18323;BME280;9287;49.456;11.064;2024-03-02T08:10:53;97168.66;;;8.06;100.00
18323;BME280;9287;49.456;11.064;2024-03-02T08:13:24;97169.47;;;7.91;100.00
18323;BME280;9287;49.456;11.064;2024-03-02T08:15:51;97173.38;;;8.09;100.00
18323;BME280;9287;49.456;11.064;2024-03-02T08:18:19;97171.09;;;8.11;100.00
18323;BME280;9287;49.456;11.064;2024-03-02T08:20:47;97169.28;;;8.34;100.00
18323;BME280;9287;49.456;11.064;2024-03-02T08:23:17;97169.44;;;8.42;100.00
18323;BME280;9287;49.456;11.064;2024-03-02T08:25:44;97162.66;;;8.16;100.00
18323;BME280;9287;49.456;11.064;2024-03-02T08:28:13;97175.97;;;8.21;100.00
18323;BME280;9287;49.456;11.064;2024-03-02T08:30:41;97169.44;;;8.42;100.00
18323;BME280;9287;49.456;11.064;2024-03-02T08:33:09;97174.88;;;8.42;100.00
18323;BME280;9287;49.456;11.064;2024-03-02T08:35:37;97177.72;;;8.87;100.00
18323;BME280;9287;49.456;11.064;2024-03-02T08:38:04;97177.72;;;8.68;100.00
18323;BME280;9287;49.456;11.064;2024-03-02T08:40:34;97169.25;;;8.92;100.00
18323;BME280;9287;49.456;11.064;2024-03-02T08:43:03;97173.94;;;9.15;100.00
18323;BME280;9287;49.456;11.064;2024-03-02T08:45:30;97186.53;;;9.23;100.00
18323;BME280;9287;49.456;11.064;2024-03-02T08:47:58;97182.56;;;9.17;100.00
18323;BME280;9287;49.456;11.064;2024-03-02T08:50:26;97181.22;;;9.30;100.00
18323;BME280;9287;49.456;11.064;2024-03-02T08:52:54;97187.91;;;9.59;100.00
18323;BME280;9287;49.456;11.064;2024-03-02T08:55:22;97175.13;;;9.86;100.00
18323;BME280;9287;49.456;11.064;2024-03-02T08:57:51;97173.09;;;10.09;100.00
18323;BME280;9287;49.456;11.064;2024-03-02T09:00:19;97182.28;;;9.97;100.00
18323;BME280;9287;49.456;11.064;2024-03-02T09:02:47;97181.13;;;10.25;100.00
18323;BME280;9287;49.456;11.064;2024-03-02T09:05:15;97188.63;;;10.05;100.00
18323;BME280;9287;49.456;11.064;2024-03-02T09:07:43;97185.25;;;10.41;100.00
18323;BME280;9287;49.456;11.064;2024-03-02T09:10:11;97188.19;;;9.76;100.00
18323;BME280;9287;49.456;11.064;2024-03-02T09:12:39;97194.09;;;9.56;100.00
18323;BME280;9287;49.456;11.064;2024-03-02T09:15:09;97190.28;;;9.60;100.00
18323;BME280;9287;49.456;11.064;2024-03-02T09:17:37;97184.47;;;9.88;100.00
18323;BME280;9287;49.456;11.064;2024-03-02T09:20:05;97187.69;;;9.94;100.00
18323;BME280;9287;49.456;11.064;2024-03-02T09:22:33;97187.03;;;10.00;100.00
18323;BME280;9287;49.456;11.064;2024-03-02T09:25:01;97187.31;;;10.22;100.00
18323;BME280;9287;49.456;11.064;2024-03-02T09:27:29;97176.59;;;9.57;100.00
18323;BME280;9287;49.456;11.064;2024-03-02T09:29:57;97176.47;;;10.25;100.00
18323;BME280;9287;49.456;11.064;2024-03-02T09:32:29;97173.38;;;10.27;100.00
18323;BME280;9287;49.456;11.064;2024-03-02T09:34:59;97174.50;;;10.52;100.00
18323;BME280;9287;49.456;11.064;2024-03-02T09:37:28;97175.69;;;10.55;100.00
18323;BME280;9287;49.456;11.064;2024-03-02T09:39:56;97179.25;;;10.59;100.00
18323;BME280;9287;49.456;11.064;2024-03-02T09:42:24;97170.38;;;10.35;100.00
18323;BME280;9287;49.456;11.064;2024-03-02T09:44:53;97170.72;;;10.64;100.00
18323;BME280;9287;49.456;11.064;2024-03-02T09:47:21;97179.75;;;11.01;100.00
18323;BME280;9287;49.456;11.064;2024-03-02T09:49:50;97166.78;;;10.61;100.00
18323;BME280;9287;49.456;11.064;2024-03-02T09:52:18;97173.75;;;11.29;100.00
18323;BME280;9287;49.456;11.064;2024-03-02T09:54:47;97167.47;;;11.22;100.00
18323;BME280;9287;49.456;11.064;2024-03-02T09:57:15;97179.81;;;11.49;100.00
18323;BME280;9287;49.456;11.064;2024-03-02T09:59:43;97169.50;;;10.95;100.00
18323;BME280;9287;49.456;11.064;2024-03-02T10:02:11;97168.19;;;11.59;100.00
18323;BME280;9287;49.456;11.064;2024-03-02T10:04:39;97160.19;;;10.99;100.00
18323;BME280;9287;49.456;11.064;2024-03-02T10:07:13;97161.94;;;11.62;100.00
18323;BME280;9287;49.456;11.064;2024-03-02T10:09:42;97158.09;;;11.26;100.00
18323;BME280;9287;49.456;11.064;2024-03-02T10:12:12;97165.06;;;11.16;100.00
18323;BME280;9287;49.456;11.064;2024-03-02T10:14:40;97165.19;;;11.31;100.00
18323;BME280;9287;49.456;11.064;2024-03-02T10:17:10;97168.44;;;11.47;100.00
18323;BME280;9287;49.456;11.064;2024-03-02T10:19:39;97163.56;;;11.70;100.00
18323;BME280;9287;49.456;11.064;2024-03-02T10:22:12;97163.66;;;11.77;100.00
18323;BME280;9287;49.456;11.064;2024-03-02T10:24:41;97157.47;;;11.40;100.00
18323;BME280;9287;49.456;11.064;2024-03-02T10:27:15;97157.63;;;11.58;100.00
18323;BME280;9287;49.456;11.064;2024-03-02T10:29:46;97157.69;;;11.68;100.00
18323;BME280;9287;49.456;11.064;2024-03-02T10:32:15;97147.00;;;12.00;100.00
18323;BME280;9287;49.456;11.064;2024-03-02T10:34:45;97160.56;;;12.44;100.00
18323;BME280;9287;49.456;11.064;2024-03-02T10:37:15;97150.69;;;11.71;100.00
18323;BME280;9287;49.456;11.064;2024-03-02T10:39:46;97153.94;;;11.83;100.00
18323;BME280;9287;49.456;11.064;2024-03-02T10:42:15;97154.28;;;12.44;100.00
18323;BME280;9287;49.456;11.064;2024-03-02T10:44:44;97158.59;;;12.48;100.00
18323;BME280;9287;49.456;11.064;2024-03-02T10:47:14;97151.94;;;12.49;100.00
18323;BME280;9287;49.456;11.064;2024-03-02T10:49:46;97141.69;;;12.29;100.00
18323;BME280;9287;49.456;11.064;2024-03-02T10:52:16;97137.63;;;12.01;100.00
18323;BME280;9287;49.456;11.064;2024-03-02T10:54:44;97138.88;;;12.11;100.00
18323;BME280;9287;49.456;11.064;2024-03-02T10:57:13;97139.69;;;12.18;100.00
18323;BME280;9287;49.456;11.064;2024-03-02T10:59:52;97138.75;;;11.90;100.00
18323;BME280;9287;49.456;11.064;2024-03-02T11:02:21;97135.94;;;11.82;100.00
18323;BME280;9287;49.456;11.064;2024-03-02T11:04:50;97146.97;;;11.97;100.00
18323;BME280;9287;49.456;11.064;2024-03-02T11:07:25;97135.41;;;12.25;100.00
18323;BME280;9287;49.456;11.064;2024-03-02T11:10:00;97130.22;;;12.02;100.00
18323;BME280;9287;49.456;11.064;2024-03-02T11:12:38;97130.72;;;12.22;100.00
18323;BME280;9287;49.456;11.064;2024-03-02T11:15:10;97125.00;;;11.82;100.00
18323;BME280;9287;49.456;11.064;2024-03-02T11:17:39;97123.34;;;11.71;100.00
18323;BME280;9287;49.456;11.064;2024-03-02T11:20:09;97118.44;;;11.91;100.00
18323;BME280;9287;49.456;11.064;2024-03-02T11:22:39;97125.06;;;11.90;100.00
18323;BME280;9287;49.456;11.064;2024-03-02T11:25:22;97133.81;;;12.20;100.00
18323;BME280;9287;49.456;11.064;2024-03-02T11:28:03;97116.41;;;11.84;100.00
18323;BME280;9287;49.456;11.064;2024-03-02T11:30:51;97119.59;;;11.90;100.00
18323;BME280;9287;49.456;11.064;2024-03-02T11:33:24;97111.78;;;11.92;100.00
18323;BME280;9287;49.456;11.064;2024-03-02T11:35:55;97110.94;;;11.84;100.00
18323;BME280;9287;49.456;11.064;2024-03-02T11:38:27;97109.47;;;11.94;100.00
18323;BME280;9287;49.456;11.064;2024-03-02T11:40:56;97107.16;;;12.03;100.00
18323;BME280;9287;49.456;11.064;2024-03-02T11:43:25;97107.19;;;12.10;100.00
18323;BME280;9287;49.456;11.064;2024-03-02T11:45:58;97106.38;;;12.06;100.00
18323;BME280;9287;49.456;11.064;2024-03-02T11:48:26;97103.31;;;12.11;100.00
18323;BME280;9287;49.456;11.064;2024-03-02T11:50:58;97107.06;;;11.89;100.00
18323;BME280;9287;49.456;11.064;2024-03-02T11:53:28;97110.16;;;11.83;100.00
18323;BME280;9287;49.456;11.064;2024-03-02T11:56:01;97112.97;;;11.94;100.00
18323;BME280;9287;49.456;11.064;2024-03-02T11:58:30;97102.31;;;11.78;100.00
18323;BME280;9287;49.456;11.064;2024-03-02T12:00:57;97100.78;;;11.77;100.00
18323;BME280;9287;49.456;11.064;2024-03-02T12:03:26;97096.28;;;12.17;100.00
18323;BME280;9287;49.456;11.064;2024-03-02T12:05:54;97100.31;;;12.48;100.00
18323;BME280;9287;49.456;11.064;2024-03-02T12:08:22;97092.31;;;12.04;100.00
18323;BME280;9287;49.456;11.064;2024-03-02T12:10:58;97084.47;;;11.99;100.00
18323;BME280;9287;49.456;11.064;2024-03-02T12:13:28;97089.16;;;11.95;100.00
18323;BME280;9287;49.456;11.064;2024-03-02T12:15:56;97084.97;;;12.22;100.00
18323;BME280;9287;49.456;11.064;2024-03-02T12:18:25;97093.25;;;12.47;100.00
18323;BME280;9287;49.456;11.064;2024-03-02T12:20:53;97073.28;;;11.63;100.00
18323;BME280;9287;49.456;11.064;2024-03-02T12:23:25;97090.00;;;12.16;100.00
18323;BME280;9287;49.456;11.064;2024-03-02T12:25:53;97075.78;;;11.82;100.00
18323;BME280;9287;49.456;11.064;2024-03-02T12:28:23;97075.81;;;11.90;100.00
18323;BME280;9287;49.456;11.064;2024-03-02T12:30:51;97080.72;;;12.39;100.00
18323;BME280;9287;49.456;11.064;2024-03-02T12:33:19;97079.88;;;12.20;100.00
18323;BME280;9287;49.456;11.064;2024-03-02T12:35:49;97078.72;;;12.22;100.00
18323;BME280;9287;49.456;11.064;2024-03-02T12:38:18;97068.00;;;11.88;100.00
18323;BME280;9287;49.456;11.064;2024-03-02T12:40:47;97061.13;;;12.26;100.00
18323;BME280;9287;49.456;11.064;2024-03-02T12:43:16;97055.63;;;12.12;100.00
18323;BME280;9287;49.456;11.064;2024-03-02T12:45:45;97058.97;;;11.80;100.00
18323;BME280;9287;49.456;11.064;2024-03-02T12:48:13;97058.75;;;12.17;100.00
18323;BME280;9287;49.456;11.064;2024-03-02T12:50:41;97049.38;;;12.22;100.00
18323;BME280;9287;49.456;11.064;2024-03-02T12:53:14;97047.63;;;11.78;100.00
18323;BME280;9287;49.456;11.064;2024-03-02T12:55:43;97057.78;;;11.81;100.00
18323;BME280;9287;49.456;11.064;2024-03-02T12:58:16;97048.53;;;12.04;100.00
18323;BME280;9287;49.456;11.064;2024-03-02T13:00:46;97044.75;;;12.37;100.00
18323;BME280;9287;49.456;11.064;2024-03-02T13:03:14;97052.34;;;11.85;100.00
18323;BME280;9287;49.456;11.064;2024-03-02T13:05:48;97031.00;;;12.19;100.00
18323;BME280;9287;49.456;11.064;2024-03-02T13:08:16;97039.22;;;12.19;100.00
18323;BME280;9287;49.456;11.064;2024-03-02T13:10:44;97035.38;;;12.38;100.00